createdAt,value
2019-03-27T00:00:43.103Z,8.90
2019-03-27T00:01:47.844Z,8.90
2019-03-27T00:02:52.604Z,8.90
2019-03-27T00:03:57.354Z,8.90
2019-03-27T00:05:02.112Z,8.90
2019-03-27T00:06:06.859Z,8.90
2019-03-27T00:07:11.576Z,8.80
2019-03-27T00:08:16.304Z,8.80
2019-03-27T00:09:21.088Z,8.80
2019-03-27T00:10:25.964Z,8.80
2019-03-27T00:11:30.700Z,8.80
2019-03-27T00:12:35.463Z,8.80
2019-03-27T00:13:40.488Z,8.80
2019-03-27T00:14:45.244Z,8.80
2019-03-27T00:15:50.008Z,8.80
2019-03-27T00:16:54.743Z,8.80
2019-03-27T00:17:59.523Z,8.80
2019-03-27T00:19:04.261Z,8.80
2019-03-27T00:20:09.018Z,8.80
2019-03-27T00:21:13.861Z,8.80
2019-03-27T00:22:18.554Z,8.80
2019-03-27T00:23:23.279Z,8.80
2019-03-27T00:24:28.032Z,8.80
2019-03-27T00:25:32.807Z,8.70
2019-03-27T00:26:37.543Z,8.70
2019-03-27T00:27:42.284Z,8.80
2019-03-27T00:28:47.027Z,8.70
2019-03-27T00:29:51.779Z,8.70
2019-03-27T00:30:56.538Z,8.70
2019-03-27T00:32:01.263Z,8.70
2019-03-27T00:33:06.007Z,8.70
2019-03-27T00:34:10.739Z,8.70
2019-03-27T00:35:15.483Z,8.70
2019-03-27T00:36:20.258Z,8.70
2019-03-27T00:37:25.014Z,8.70
2019-03-27T00:38:29.765Z,8.70
2019-03-27T00:39:34.507Z,8.70
2019-03-27T00:40:39.275Z,8.70
2019-03-27T00:41:44.021Z,8.70
2019-03-27T00:42:48.763Z,8.70
2019-03-27T00:43:53.498Z,8.70
2019-03-27T00:44:58.225Z,8.70
2019-03-27T00:46:03.003Z,8.70
2019-03-27T00:47:07.743Z,8.70
2019-03-27T00:48:12.483Z,8.60
2019-03-27T00:49:17.231Z,8.60
2019-03-27T00:50:21.996Z,8.60
2019-03-27T00:51:26.786Z,8.60
2019-03-27T00:52:31.539Z,8.60
2019-03-27T00:53:36.282Z,8.60
2019-03-27T00:54:41.019Z,8.60
2019-03-27T00:55:45.791Z,8.60
2019-03-27T00:56:50.561Z,8.70
2019-03-27T00:57:55.326Z,8.60
2019-03-27T00:59:00.078Z,8.60
2019-03-27T01:00:05.973Z,8.60
2019-03-27T01:01:12.100Z,8.60
2019-03-27T01:02:16.840Z,8.60
2019-03-27T01:03:21.579Z,8.60
2019-03-27T01:04:26.334Z,8.50
2019-03-27T01:05:31.101Z,8.50
2019-03-27T01:06:35.883Z,8.50
2019-03-27T01:07:40.616Z,8.50
2019-03-27T01:08:45.411Z,8.50
2019-03-27T01:09:50.155Z,8.50
2019-03-27T01:10:54.921Z,8.50
2019-03-27T01:11:59.687Z,8.50
2019-03-27T01:13:04.478Z,8.40
2019-03-27T01:14:09.207Z,8.40
2019-03-27T01:15:14.014Z,8.40
2019-03-27T01:16:18.768Z,8.40
2019-03-27T01:17:23.547Z,8.30
2019-03-27T01:18:28.304Z,8.30
2019-03-27T01:19:33.043Z,8.30
2019-03-27T01:20:37.872Z,8.30
2019-03-27T01:21:42.647Z,8.30
2019-03-27T01:22:47.405Z,8.20
2019-03-27T01:23:52.148Z,8.20
2019-03-27T01:24:56.932Z,8.20
2019-03-27T01:26:01.728Z,8.20
2019-03-27T01:27:06.504Z,8.20
2019-03-27T01:28:11.239Z,8.20
2019-03-27T01:29:15.979Z,8.20
2019-03-27T01:30:20.714Z,8.10
2019-03-27T01:31:25.440Z,8.20
2019-03-27T01:32:30.238Z,8.20
2019-03-27T01:33:34.983Z,8.20
2019-03-27T01:34:39.731Z,8.20
2019-03-27T01:35:44.464Z,8.20
2019-03-27T01:36:49.202Z,8.20
2019-03-27T01:37:53.979Z,8.20
2019-03-27T01:38:58.731Z,8.20
2019-03-27T01:40:03.536Z,8.10
2019-03-27T01:41:08.256Z,8.20
2019-03-27T01:42:13.033Z,8.20
2019-03-27T01:43:17.753Z,8.10
2019-03-27T01:44:22.505Z,8.10
2019-03-27T01:45:27.242Z,8.10
2019-03-27T01:46:32.003Z,8.10
2019-03-27T01:47:36.774Z,8.10
2019-03-27T01:48:41.519Z,8.10
2019-03-27T01:49:46.275Z,8.00
2019-03-27T01:50:51.019Z,8.00
2019-03-27T01:51:55.760Z,8.00
2019-03-27T01:53:00.572Z,7.90
2019-03-27T01:54:05.314Z,7.90
2019-03-27T01:55:10.267Z,7.90
2019-03-27T01:56:15.001Z,7.90
2019-03-27T01:57:19.775Z,7.90
2019-03-27T01:58:24.545Z,7.90
2019-03-27T01:59:29.292Z,7.90
2019-03-27T02:00:34.038Z,7.80
2019-03-27T02:01:38.775Z,7.90
2019-03-27T02:02:43.539Z,7.90
2019-03-27T02:03:48.266Z,7.80
2019-03-27T02:04:52.932Z,7.80
2019-03-27T02:05:57.676Z,7.80
2019-03-27T02:07:02.414Z,7.80
2019-03-27T02:08:07.196Z,7.80
2019-03-27T02:09:11.971Z,7.80
2019-03-27T02:10:16.707Z,7.80
2019-03-27T02:11:21.462Z,7.80
2019-03-27T02:12:26.307Z,7.70
2019-03-27T02:13:31.072Z,7.70
2019-03-27T02:14:35.819Z,7.70
2019-03-27T02:15:40.547Z,7.70
2019-03-27T02:16:45.330Z,7.60
2019-03-27T02:17:50.094Z,7.60
2019-03-27T02:18:54.855Z,7.60
2019-03-27T02:19:59.698Z,7.60
2019-03-27T02:21:04.410Z,7.60
2019-03-27T02:22:10.134Z,7.50
2019-03-27T02:23:14.903Z,7.50
2019-03-27T02:24:19.787Z,7.50
2019-03-27T02:25:24.521Z,7.50
2019-03-27T02:26:29.259Z,7.40
2019-03-27T02:27:34.009Z,7.40
2019-03-27T02:28:38.778Z,7.40
2019-03-27T02:29:43.529Z,7.40
2019-03-27T02:30:48.324Z,7.40
2019-03-27T02:31:53.055Z,7.40
2019-03-27T02:32:57.838Z,7.30
2019-03-27T02:34:02.590Z,7.30
2019-03-27T02:35:07.359Z,7.30
2019-03-27T02:36:12.096Z,7.30
2019-03-27T02:37:16.844Z,7.30
2019-03-27T02:38:21.622Z,7.30
2019-03-27T02:39:26.380Z,7.30
2019-03-27T02:40:31.131Z,7.20
2019-03-27T02:41:35.881Z,7.20
2019-03-27T02:42:40.633Z,7.20
2019-03-27T02:43:45.407Z,7.20
2019-03-27T02:44:50.149Z,7.20
2019-03-27T02:45:55.018Z,7.20
2019-03-27T02:46:59.762Z,7.10
2019-03-27T02:48:04.556Z,7.10
2019-03-27T02:49:09.298Z,7.10
2019-03-27T02:50:14.056Z,7.10
2019-03-27T02:51:18.810Z,7.10
2019-03-27T02:52:23.539Z,7.10
2019-03-27T02:53:28.322Z,7.10
2019-03-27T02:54:33.066Z,7.10
2019-03-27T02:55:37.814Z,7.10
2019-03-27T02:56:42.557Z,7.10
2019-03-27T02:57:47.297Z,7.10
2019-03-27T02:58:52.097Z,7.10
2019-03-27T02:59:56.818Z,7.10
2019-03-27T03:01:01.928Z,7.10
2019-03-27T03:02:06.653Z,7.20
2019-03-27T03:03:11.379Z,7.20
2019-03-27T03:04:16.214Z,7.20
2019-03-27T03:05:20.919Z,7.20
2019-03-27T03:06:25.659Z,7.20
2019-03-27T03:07:30.411Z,7.20
2019-03-27T03:08:35.193Z,7.30
2019-03-27T03:09:39.974Z,7.30
2019-03-27T03:10:45.929Z,7.30
2019-03-27T03:11:50.860Z,7.30
2019-03-27T03:12:55.603Z,7.30
2019-03-27T03:14:00.622Z,7.40
2019-03-27T03:15:05.903Z,7.30
2019-03-27T03:16:10.640Z,7.40
2019-03-27T03:17:15.367Z,7.40
2019-03-27T03:18:20.100Z,7.40
2019-03-27T03:19:24.918Z,7.40
2019-03-27T03:20:29.669Z,7.50
2019-03-27T03:21:34.447Z,7.50
2019-03-27T03:22:39.183Z,7.50
2019-03-27T03:23:43.972Z,7.50
2019-03-27T03:24:48.746Z,7.50
2019-03-27T03:25:53.474Z,7.50
2019-03-27T03:26:58.252Z,7.50
2019-03-27T03:28:03.030Z,7.50
2019-03-27T03:29:07.738Z,7.50
2019-03-27T03:30:12.477Z,7.50
2019-03-27T03:31:17.222Z,7.50
2019-03-27T03:32:21.983Z,7.50
2019-03-27T03:33:26.787Z,7.60
2019-03-27T03:34:31.576Z,7.60
2019-03-27T03:35:36.416Z,7.60
2019-03-27T03:36:41.157Z,7.60
2019-03-27T03:37:46.191Z,7.60
2019-03-27T03:38:50.936Z,7.60
2019-03-27T03:39:55.746Z,7.60
2019-03-27T03:41:00.741Z,7.60
2019-03-27T03:42:05.466Z,7.60
2019-03-27T03:43:10.219Z,7.60
2019-03-27T03:44:14.944Z,7.60
2019-03-27T03:45:19.745Z,7.60
2019-03-27T03:46:24.454Z,7.70
2019-03-27T03:47:29.201Z,7.70
2019-03-27T03:48:33.915Z,7.70
2019-03-27T03:49:38.785Z,7.70
2019-03-27T03:50:44.413Z,7.80
2019-03-27T03:51:49.191Z,7.80
2019-03-27T03:52:53.936Z,7.80
2019-03-27T03:53:58.688Z,7.80
2019-03-27T03:55:03.488Z,7.80
2019-03-27T03:56:08.241Z,7.80
2019-03-27T03:57:12.980Z,7.80
2019-03-27T03:58:18.503Z,7.90
2019-03-27T03:59:23.252Z,7.90
2019-03-27T04:00:28.040Z,7.90
2019-03-27T04:01:32.776Z,7.90
2019-03-27T04:02:37.730Z,7.90
2019-03-27T04:03:42.872Z,8.00
2019-03-27T04:04:47.624Z,8.00
2019-03-27T04:05:52.402Z,8.00
2019-03-27T04:06:57.144Z,8.00
2019-03-27T04:08:01.876Z,8.10
2019-03-27T04:09:07.371Z,8.10
2019-03-27T04:10:12.145Z,8.10
2019-03-27T04:11:16.914Z,8.10
2019-03-27T04:12:21.660Z,8.10
2019-03-27T04:13:26.403Z,8.10
2019-03-27T04:14:31.140Z,8.10
2019-03-27T04:15:35.919Z,8.10
2019-03-27T04:16:40.664Z,8.10
2019-03-27T04:17:45.407Z,8.10
2019-03-27T04:18:50.169Z,8.10
2019-03-27T04:19:54.914Z,8.10
2019-03-27T04:20:59.679Z,8.10
2019-03-27T04:22:04.423Z,8.10
2019-03-27T04:23:09.205Z,8.10
2019-03-27T04:24:13.971Z,8.10
2019-03-27T04:25:20.621Z,8.10
2019-03-27T04:26:25.359Z,8.10
2019-03-27T04:27:30.109Z,8.10
2019-03-27T04:28:34.835Z,8.10
2019-03-27T04:29:39.590Z,8.10
2019-03-27T04:30:44.356Z,8.00
2019-03-27T04:31:49.088Z,8.00
2019-03-27T04:32:53.843Z,8.00
2019-03-27T04:33:58.576Z,8.10
2019-03-27T04:35:03.314Z,8.10
2019-03-27T04:36:08.095Z,8.10
2019-03-27T04:37:12.847Z,8.10
2019-03-27T04:38:17.579Z,8.10
2019-03-27T04:39:22.311Z,8.10
2019-03-27T04:40:27.094Z,8.10
2019-03-27T04:41:31.830Z,8.10
2019-03-27T04:42:36.564Z,8.10
2019-03-27T04:43:41.323Z,8.10
2019-03-27T04:44:46.074Z,8.10
2019-03-27T04:45:50.856Z,8.20
2019-03-27T04:46:55.694Z,8.20
2019-03-27T04:48:00.435Z,8.20
2019-03-27T04:49:07.595Z,8.20
2019-03-27T04:50:11.573Z,8.20
2019-03-27T04:51:16.438Z,8.20
2019-03-27T04:52:21.154Z,8.20
2019-03-27T04:53:25.891Z,8.20
2019-03-27T04:54:30.652Z,8.20
2019-03-27T04:55:35.411Z,8.10
2019-03-27T04:56:40.145Z,8.20
2019-03-27T04:57:44.887Z,8.20
2019-03-27T04:58:49.627Z,8.20
2019-03-27T04:59:54.363Z,8.20
2019-03-27T05:00:59.132Z,8.20
2019-03-27T05:02:06.510Z,8.20
2019-03-27T05:03:10.256Z,8.20
2019-03-27T05:04:15.091Z,8.20
2019-03-27T05:05:19.974Z,8.30
2019-03-27T05:06:24.768Z,8.30
2019-03-27T05:07:29.525Z,8.30
2019-03-27T05:08:34.267Z,8.30
2019-03-27T05:09:39.033Z,8.30
2019-03-27T05:10:43.857Z,8.30
2019-03-27T05:11:48.591Z,8.30
2019-03-27T05:12:53.342Z,8.30
2019-03-27T05:13:58.316Z,8.40
2019-03-27T05:15:03.066Z,8.40
2019-03-27T05:16:07.913Z,8.40
2019-03-27T05:17:12.579Z,8.40
2019-03-27T05:18:17.319Z,8.40
2019-03-27T05:19:22.051Z,8.40
2019-03-27T05:20:28.796Z,8.40
2019-03-27T05:21:33.296Z,8.40
2019-03-27T05:22:38.240Z,8.40
2019-03-27T05:23:42.976Z,8.40
2019-03-27T05:24:47.716Z,8.40
2019-03-27T05:25:52.496Z,8.50
2019-03-27T05:26:57.296Z,8.50
2019-03-27T05:28:02.026Z,8.50
2019-03-27T05:29:06.752Z,8.50
2019-03-27T05:30:11.496Z,8.50
2019-03-27T05:31:16.230Z,8.50
2019-03-27T05:32:21.007Z,8.50
2019-03-27T05:33:25.750Z,8.50
2019-03-27T05:34:30.496Z,8.50
2019-03-27T05:35:35.242Z,8.50
2019-03-27T05:36:40.204Z,8.50
2019-03-27T05:37:44.969Z,8.50
2019-03-27T05:38:49.796Z,8.50
2019-03-27T05:39:54.597Z,8.50
2019-03-27T05:40:59.351Z,8.50
2019-03-27T05:42:04.171Z,8.50
2019-03-27T05:43:08.916Z,8.60
2019-03-27T05:44:13.717Z,8.60
2019-03-27T05:45:18.487Z,8.60
2019-03-27T05:46:26.392Z,8.60
2019-03-27T05:47:29.678Z,8.60
2019-03-27T05:48:34.415Z,8.60
2019-03-27T05:49:39.178Z,8.60
2019-03-27T05:50:43.924Z,8.60
2019-03-27T05:51:48.703Z,8.60
2019-03-27T05:52:53.571Z,8.60
2019-03-27T05:53:58.336Z,8.60
2019-03-27T05:55:03.087Z,8.60
2019-03-27T05:56:07.828Z,8.60
2019-03-27T05:57:12.592Z,8.60
2019-03-27T05:58:17.430Z,8.60
2019-03-27T05:59:22.139Z,8.60
2019-03-27T06:00:26.883Z,8.60
2019-03-27T06:01:31.658Z,8.70
2019-03-27T06:02:36.407Z,8.70
2019-03-27T06:03:41.183Z,8.70
2019-03-27T06:04:46.172Z,8.70
2019-03-27T06:05:50.936Z,8.70
2019-03-27T06:06:55.715Z,8.70
2019-03-27T06:08:00.484Z,8.70
2019-03-27T06:09:06.783Z,8.70
2019-03-27T06:10:11.574Z,8.80
2019-03-27T06:11:16.447Z,8.80
2019-03-27T06:12:21.202Z,8.80
2019-03-27T06:13:25.984Z,8.80
2019-03-27T06:14:30.730Z,8.90
2019-03-27T06:15:35.468Z,8.80
2019-03-27T06:16:40.215Z,8.80
2019-03-27T06:17:44.950Z,8.80
2019-03-27T06:18:49.739Z,8.80
2019-03-27T06:19:54.472Z,8.90
2019-03-27T06:20:59.262Z,8.90
2019-03-27T06:22:03.984Z,9.00
2019-03-27T06:23:08.724Z,9.00
2019-03-27T06:24:13.510Z,9.10
2019-03-27T06:25:18.302Z,9.20
2019-03-27T06:26:23.107Z,9.30
2019-03-27T06:27:27.827Z,9.40
2019-03-27T06:28:32.566Z,9.40
2019-03-27T06:29:37.300Z,9.40
2019-03-27T06:30:42.051Z,9.40
2019-03-27T06:31:46.807Z,9.50
2019-03-27T06:32:51.565Z,9.50
2019-03-27T06:33:56.332Z,9.50
2019-03-27T06:35:01.079Z,9.50
2019-03-27T06:36:05.828Z,9.50
2019-03-27T06:37:10.566Z,9.50
2019-03-27T06:38:15.308Z,9.50
2019-03-27T06:39:20.085Z,9.50
2019-03-27T06:40:24.814Z,9.50
2019-03-27T06:41:29.547Z,9.50
2019-03-27T06:42:34.281Z,9.50
2019-03-27T06:43:39.055Z,9.50
2019-03-27T06:44:43.816Z,9.50
2019-03-27T06:45:48.562Z,9.50
2019-03-27T06:46:53.295Z,9.60
2019-03-27T06:47:58.057Z,9.60
2019-03-27T06:49:02.820Z,9.60
2019-03-27T06:50:07.813Z,9.60
2019-03-27T06:51:12.581Z,9.60
2019-03-27T06:52:17.345Z,9.50
2019-03-27T06:53:22.089Z,9.50
2019-03-27T06:54:26.957Z,9.60
2019-03-27T06:55:31.699Z,9.60
2019-03-27T06:56:36.438Z,9.60
2019-03-27T06:57:41.196Z,9.70
2019-03-27T06:58:54.416Z,9.70
2019-03-27T06:59:52.355Z,9.70
2019-03-27T07:00:57.099Z,9.80
2019-03-27T07:02:01.973Z,9.80
2019-03-27T07:03:07.520Z,9.90
2019-03-27T07:04:12.261Z,9.90
2019-03-27T07:05:17.031Z,9.90
2019-03-27T07:06:21.762Z,9.90
2019-03-27T07:07:26.502Z,9.80
2019-03-27T07:08:31.251Z,9.80
2019-03-27T07:09:36.057Z,9.80
2019-03-27T07:10:40.802Z,9.90
2019-03-27T07:11:45.541Z,9.90
2019-03-27T07:12:50.281Z,9.90
2019-03-27T07:13:55.019Z,9.90
2019-03-27T07:14:59.783Z,9.90
2019-03-27T07:16:04.520Z,9.90
2019-03-27T07:17:09.283Z,9.90
2019-03-27T07:18:14.043Z,9.90
2019-03-27T07:19:18.782Z,10.00
2019-03-27T07:20:23.552Z,10.00
2019-03-27T07:21:28.338Z,10.00
2019-03-27T07:22:33.084Z,10.00
2019-03-27T07:23:37.835Z,10.00
2019-03-27T07:24:42.567Z,10.10
2019-03-27T07:25:47.331Z,10.20
2019-03-27T07:26:52.083Z,10.20
2019-03-27T07:27:56.835Z,10.30
2019-03-27T07:29:01.591Z,10.30
2019-03-27T07:30:07.723Z,10.30
2019-03-27T07:31:12.499Z,10.30
2019-03-27T07:32:17.240Z,10.30
2019-03-27T07:33:22.000Z,10.30
2019-03-27T07:34:26.751Z,10.30
2019-03-27T07:35:31.536Z,10.30
2019-03-27T07:36:36.276Z,10.30
2019-03-27T07:37:41.015Z,10.20
2019-03-27T07:38:45.765Z,10.30
2019-03-27T07:39:50.508Z,10.30
2019-03-27T07:40:55.285Z,10.30
2019-03-27T07:42:00.300Z,10.30
2019-03-27T07:43:05.063Z,10.20
2019-03-27T07:44:09.816Z,10.30
2019-03-27T07:45:14.556Z,10.30
2019-03-27T07:46:19.344Z,10.40
2019-03-27T07:47:24.091Z,10.40
2019-03-27T07:48:28.843Z,10.50
2019-03-27T07:49:33.597Z,10.60
2019-03-27T07:50:38.383Z,10.60
2019-03-27T07:51:43.149Z,10.70
2019-03-27T07:52:47.913Z,10.90
2019-03-27T07:53:52.644Z,11.40
2019-03-27T07:54:57.387Z,11.70
2019-03-27T07:56:02.158Z,11.60
2019-03-27T07:57:06.888Z,11.60
2019-03-27T07:58:11.634Z,11.70
2019-03-27T07:59:16.360Z,11.70
2019-03-27T08:00:21.735Z,11.90
2019-03-27T08:01:26.502Z,12.40
2019-03-27T08:02:31.239Z,13.20
2019-03-27T08:03:35.987Z,13.20
2019-03-27T08:04:40.783Z,14.70
2019-03-27T08:05:45.524Z,15.10
2019-03-27T08:06:50.292Z,14.90
2019-03-27T08:07:55.026Z,14.90
2019-03-27T08:08:59.759Z,15.20
2019-03-27T08:10:04.888Z,14.80
2019-03-27T08:11:09.635Z,14.60
2019-03-27T08:12:14.403Z,14.50
2019-03-27T08:13:19.142Z,14.20
2019-03-27T08:14:23.895Z,13.80
2019-03-27T08:15:28.631Z,13.70
2019-03-27T08:16:33.407Z,13.60
2019-03-27T08:17:38.147Z,13.60
2019-03-27T08:18:42.899Z,14.70
2019-03-27T08:19:47.634Z,15.70
2019-03-27T08:20:52.376Z,16.60
2019-03-27T08:21:57.151Z,17.10
2019-03-27T08:23:01.920Z,17.00
2019-03-27T08:24:06.658Z,16.80
2019-03-27T08:25:11.413Z,16.60
2019-03-27T08:26:16.139Z,16.30
2019-03-27T08:27:20.917Z,16.10
2019-03-27T08:28:25.651Z,16.90
2019-03-27T08:29:30.412Z,16.60
2019-03-27T08:30:35.148Z,16.40
2019-03-27T08:31:40.124Z,16.20
2019-03-27T08:32:44.972Z,16.00
2019-03-27T08:33:49.648Z,16.40
2019-03-27T08:34:54.391Z,17.90
2019-03-27T08:35:59.143Z,18.80
2019-03-27T08:37:03.927Z,19.30
2019-03-27T08:38:08.660Z,20.40
2019-03-27T08:39:13.425Z,21.50
2019-03-27T08:40:18.178Z,22.40
2019-03-27T08:41:22.927Z,23.30
2019-03-27T08:42:27.713Z,23.80
2019-03-27T08:43:32.468Z,23.90
2019-03-27T08:44:37.218Z,24.00
2019-03-27T08:45:41.966Z,24.50
2019-03-27T08:46:46.727Z,24.90
2019-03-27T08:47:51.504Z,25.20
2019-03-27T08:48:56.286Z,25.30
2019-03-27T08:50:01.032Z,25.60
2019-03-27T08:51:05.799Z,26.10
2019-03-27T08:52:10.539Z,26.70
2019-03-27T08:53:15.335Z,27.20
2019-03-27T08:54:20.084Z,27.70
2019-03-27T08:55:24.840Z,28.20
2019-03-27T08:56:29.578Z,28.40
2019-03-27T08:57:34.375Z,28.60
2019-03-27T08:58:39.130Z,28.80
2019-03-27T08:59:43.872Z,27.70
2019-03-27T09:00:54.115Z,28.20
2019-03-27T09:01:58.867Z,28.80
2019-03-27T09:03:03.752Z,29.30
2019-03-27T09:04:08.506Z,27.90
2019-03-27T09:05:13.655Z,26.40
2019-03-27T09:06:18.428Z,25.20
2019-03-27T09:07:23.218Z,24.30
2019-03-27T09:08:27.991Z,24.90
2019-03-27T09:09:32.740Z,25.40
2019-03-27T09:10:37.543Z,26.10
2019-03-27T09:11:42.270Z,26.70
2019-03-27T09:12:47.050Z,27.20
2019-03-27T09:13:51.783Z,28.00
2019-03-27T09:14:56.538Z,28.90
2019-03-27T09:16:01.288Z,29.50
2019-03-27T09:17:06.050Z,30.10
2019-03-27T09:18:10.835Z,29.70
2019-03-27T09:19:15.576Z,29.80
2019-03-27T09:20:20.328Z,29.90
2019-03-27T09:21:25.082Z,29.90
2019-03-27T09:22:29.827Z,30.00
2019-03-27T09:23:34.595Z,30.10
2019-03-27T09:24:39.343Z,29.90
2019-03-27T09:25:44.179Z,29.80
2019-03-27T09:26:48.913Z,30.00
2019-03-27T09:27:53.829Z,29.80
2019-03-27T09:28:58.573Z,30.40
2019-03-27T09:30:03.336Z,31.10
2019-03-27T09:31:08.086Z,31.00
2019-03-27T09:32:12.843Z,31.10
2019-03-27T09:33:17.647Z,30.30
2019-03-27T09:34:22.367Z,30.00
2019-03-27T09:35:27.103Z,30.20
2019-03-27T09:36:31.863Z,30.20
2019-03-27T09:37:36.606Z,30.50
2019-03-27T09:38:41.374Z,30.30
2019-03-27T09:39:46.126Z,30.60
2019-03-27T09:40:50.862Z,30.60
2019-03-27T09:41:55.611Z,31.00
2019-03-27T09:43:00.334Z,31.30
2019-03-27T09:44:05.154Z,31.20
2019-03-27T09:45:09.954Z,31.10
2019-03-27T09:46:14.696Z,31.30
2019-03-27T09:47:19.500Z,31.00
2019-03-27T09:48:24.284Z,30.70
2019-03-27T09:49:29.034Z,30.10
2019-03-27T09:50:33.781Z,29.20
2019-03-27T09:51:38.543Z,28.80
2019-03-27T09:52:43.314Z,28.50
2019-03-27T09:53:48.097Z,28.50
2019-03-27T09:54:52.847Z,28.50
2019-03-27T09:55:57.647Z,28.70
2019-03-27T09:57:02.395Z,28.80
2019-03-27T09:58:07.130Z,29.00
2019-03-27T09:59:11.910Z,29.10
2019-03-27T10:00:20.131Z,29.30
2019-03-27T10:01:24.874Z,29.30
2019-03-27T10:02:29.599Z,29.10
2019-03-27T10:03:34.355Z,29.60
2019-03-27T10:04:39.180Z,30.20
2019-03-27T10:05:43.945Z,30.30
2019-03-27T10:06:48.708Z,30.50
2019-03-27T10:07:53.455Z,30.70
2019-03-27T10:08:58.255Z,30.90
2019-03-27T10:10:03.046Z,31.00
2019-03-27T10:11:07.795Z,30.90
2019-03-27T10:12:12.587Z,31.30
2019-03-27T10:13:17.341Z,31.00
2019-03-27T10:14:22.124Z,30.40
2019-03-27T10:15:26.907Z,29.40
2019-03-27T10:16:31.691Z,28.50
2019-03-27T10:17:36.512Z,28.00
2019-03-27T10:18:41.233Z,27.20
2019-03-27T10:19:45.996Z,26.70
2019-03-27T10:20:50.751Z,26.60
2019-03-27T10:21:55.475Z,26.40
2019-03-27T10:23:00.227Z,26.30
2019-03-27T10:24:04.952Z,26.20
2019-03-27T10:25:09.851Z,25.80
2019-03-27T10:26:14.554Z,25.30
2019-03-27T10:27:19.305Z,24.70
2019-03-27T10:28:24.177Z,24.40
2019-03-27T10:29:28.945Z,24.00
2019-03-27T10:30:33.704Z,23.50
2019-03-27T10:31:38.547Z,23.00
2019-03-27T10:32:43.303Z,22.50
2019-03-27T10:33:48.050Z,22.30
2019-03-27T10:34:52.831Z,22.10
2019-03-27T10:35:57.588Z,22.00
2019-03-27T10:37:02.344Z,21.90
2019-03-27T10:38:07.122Z,21.90
2019-03-27T10:39:11.871Z,21.80
2019-03-27T10:40:16.644Z,21.60
2019-03-27T10:41:21.391Z,21.60
2019-03-27T10:42:26.172Z,21.60
2019-03-27T10:43:30.927Z,21.40
2019-03-27T10:44:35.712Z,21.00
2019-03-27T10:45:40.520Z,21.00
2019-03-27T10:46:45.268Z,20.90
2019-03-27T10:47:50.016Z,20.60
2019-03-27T10:48:54.756Z,20.40
2019-03-27T10:49:59.639Z,20.20
2019-03-27T10:51:04.407Z,20.20
2019-03-27T10:52:09.166Z,19.70
2019-03-27T10:53:13.919Z,19.40
2019-03-27T10:54:18.674Z,19.40
2019-03-27T10:55:23.457Z,19.60
2019-03-27T10:56:28.213Z,19.70
2019-03-27T10:57:32.959Z,19.80
2019-03-27T10:58:37.706Z,20.10
2019-03-27T10:59:42.467Z,20.40
2019-03-27T11:00:47.256Z,20.60
2019-03-27T11:01:52.016Z,20.90
2019-03-27T11:02:56.763Z,21.10
2019-03-27T11:04:01.508Z,21.20
2019-03-27T11:05:06.307Z,21.30
2019-03-27T11:06:11.119Z,21.40
2019-03-27T11:07:15.864Z,21.50
2019-03-27T11:08:20.618Z,21.60
2019-03-27T11:09:25.355Z,21.80
2019-03-27T11:10:30.276Z,21.80
2019-03-27T11:11:35.059Z,21.90
2019-03-27T11:12:39.790Z,21.80
2019-03-27T11:13:44.834Z,21.60
2019-03-27T11:14:49.591Z,21.60
2019-03-27T11:15:54.455Z,21.60
2019-03-27T11:16:59.215Z,21.80
2019-03-27T11:18:04.004Z,21.90
2019-03-27T11:19:08.770Z,22.00
2019-03-27T11:20:14.718Z,21.80
2019-03-27T11:21:19.492Z,21.60
2019-03-27T11:22:24.272Z,21.80
2019-03-27T11:23:28.992Z,22.30
2019-03-27T11:24:33.748Z,22.70
2019-03-27T11:25:38.495Z,22.80
2019-03-27T11:26:43.375Z,22.60
2019-03-27T11:27:48.145Z,22.60
2019-03-27T11:28:52.897Z,22.30
2019-03-27T11:29:57.652Z,21.90
2019-03-27T11:31:02.423Z,21.90
2019-03-27T11:32:07.176Z,21.90
2019-03-27T11:33:11.924Z,22.00
2019-03-27T11:34:16.746Z,22.10
2019-03-27T11:35:21.533Z,22.40
2019-03-27T11:36:26.322Z,22.70
2019-03-27T11:37:31.104Z,22.40
2019-03-27T11:38:37.520Z,22.40
2019-03-27T11:39:42.288Z,22.50
2019-03-27T11:40:47.066Z,22.50
2019-03-27T11:41:51.844Z,22.50
2019-03-27T11:42:56.604Z,22.50
2019-03-27T11:44:01.349Z,22.40
2019-03-27T11:45:06.784Z,22.30
2019-03-27T11:46:11.520Z,22.40
2019-03-27T11:47:16.288Z,22.20
2019-03-27T11:48:21.031Z,21.80
2019-03-27T11:49:25.774Z,21.50
2019-03-27T11:50:43.781Z,21.20
2019-03-27T11:51:36.980Z,21.50
2019-03-27T11:52:41.765Z,22.30
2019-03-27T11:53:46.822Z,22.70
2019-03-27T11:54:51.561Z,22.90
2019-03-27T11:55:56.303Z,23.10
2019-03-27T11:57:01.096Z,22.90
2019-03-27T11:58:06.073Z,22.60
2019-03-27T11:59:10.822Z,22.60
2019-03-27T12:00:15.572Z,22.30
2019-03-27T12:01:20.312Z,22.10
2019-03-27T12:02:25.078Z,22.10
2019-03-27T12:03:29.856Z,22.00
2019-03-27T12:04:34.580Z,21.70
2019-03-27T12:05:39.325Z,21.60
2019-03-27T12:06:44.105Z,21.50
2019-03-27T12:07:48.855Z,21.40
2019-03-27T12:08:53.598Z,21.20
2019-03-27T12:09:58.364Z,21.10
2019-03-27T12:11:03.112Z,21.10
2019-03-27T12:12:07.897Z,21.20
2019-03-27T12:13:12.684Z,21.70
2019-03-27T12:14:17.433Z,22.20
2019-03-27T12:15:47.096Z,22.60
2019-03-27T12:16:51.900Z,23.00
2019-03-27T12:17:56.635Z,23.50
2019-03-27T12:19:01.387Z,23.90
2019-03-27T12:20:07.103Z,24.20
2019-03-27T12:21:11.831Z,24.40
2019-03-27T12:22:16.643Z,24.50
2019-03-27T12:23:21.396Z,24.80
2019-03-27T12:24:28.508Z,24.60
2019-03-27T12:25:32.515Z,24.90
2019-03-27T12:26:37.264Z,24.50
2019-03-27T12:27:42.047Z,24.40
2019-03-27T12:28:46.770Z,24.20
2019-03-27T12:29:51.563Z,24.10
2019-03-27T12:30:56.557Z,24.60
2019-03-27T12:32:01.416Z,24.60
2019-03-27T12:33:06.211Z,24.40
2019-03-27T12:34:10.976Z,24.10
2019-03-27T12:35:15.691Z,23.90
2019-03-27T12:36:20.440Z,23.60
2019-03-27T12:37:25.224Z,23.40
2019-03-27T12:38:29.978Z,23.20
2019-03-27T12:39:34.749Z,22.80
2019-03-27T12:40:39.491Z,22.70
2019-03-27T12:41:44.236Z,22.90
2019-03-27T12:42:49.011Z,23.00
2019-03-27T12:43:53.847Z,23.20
2019-03-27T12:45:01.613Z,23.40
2019-03-27T12:46:04.982Z,23.60
2019-03-27T12:47:09.728Z,23.60
2019-03-27T12:48:14.520Z,23.80
2019-03-27T12:49:19.262Z,23.70
2019-03-27T12:50:24.017Z,23.60
2019-03-27T12:51:28.819Z,23.40
2019-03-27T12:52:33.710Z,23.30
2019-03-27T12:53:38.463Z,23.20
2019-03-27T12:54:43.207Z,22.90
2019-03-27T12:55:47.948Z,22.50
2019-03-27T12:56:52.722Z,22.40
2019-03-27T12:57:57.431Z,22.00
2019-03-27T12:59:02.165Z,21.90
2019-03-27T13:00:07.119Z,21.90
2019-03-27T13:01:11.847Z,21.90
2019-03-27T13:02:16.580Z,22.00
2019-03-27T13:03:21.360Z,21.90
2019-03-27T13:04:26.104Z,22.00
2019-03-27T13:05:31.996Z,22.00
2019-03-27T13:06:36.808Z,21.80
2019-03-27T13:07:49.964Z,21.90
2019-03-27T13:08:49.495Z,21.90
2019-03-27T13:09:54.439Z,21.90
2019-03-27T13:10:59.170Z,22.00
2019-03-27T13:12:03.937Z,22.00
2019-03-27T13:13:08.712Z,21.90
2019-03-27T13:14:13.475Z,21.70
2019-03-27T13:15:18.210Z,21.50
2019-03-27T13:16:22.963Z,21.40
2019-03-27T13:17:27.691Z,21.40
2019-03-27T13:18:32.476Z,21.50
2019-03-27T13:19:37.211Z,21.70
2019-03-27T13:20:41.955Z,21.70
2019-03-27T13:21:46.695Z,21.60
2019-03-27T13:22:51.505Z,21.50
2019-03-27T13:23:56.358Z,21.40
2019-03-27T13:25:01.106Z,21.50
2019-03-27T13:26:05.859Z,21.40
2019-03-27T13:27:10.615Z,21.20
2019-03-27T13:28:15.387Z,21.00
2019-03-27T13:29:20.129Z,21.00
2019-03-27T13:30:24.869Z,21.00
2019-03-27T13:31:29.919Z,20.90
2019-03-27T13:32:34.664Z,20.90
2019-03-27T13:33:39.439Z,20.80
2019-03-27T13:34:44.167Z,20.70
2019-03-27T13:35:48.903Z,20.60
2019-03-27T13:36:53.649Z,20.70
2019-03-27T13:37:58.383Z,20.70
2019-03-27T13:39:03.892Z,20.50
2019-03-27T13:40:08.647Z,20.50
2019-03-27T13:41:13.399Z,20.50
2019-03-27T13:42:18.144Z,20.50
2019-03-27T13:43:22.925Z,20.40
2019-03-27T13:44:36.843Z,20.40
2019-03-27T13:45:34.079Z,20.40
2019-03-27T13:46:38.872Z,20.30
2019-03-27T13:47:43.768Z,20.20
2019-03-27T13:48:48.531Z,20.10
2019-03-27T13:49:53.260Z,19.90
2019-03-27T13:50:58.004Z,19.80
2019-03-27T13:52:02.747Z,19.60
2019-03-27T13:53:07.484Z,19.50
2019-03-27T13:54:12.253Z,19.40
2019-03-27T13:55:16.991Z,19.30
2019-03-27T13:56:21.732Z,19.20
2019-03-27T13:57:26.507Z,19.30
2019-03-27T13:58:31.240Z,19.30
2019-03-27T13:59:36.008Z,19.40
2019-03-27T14:00:40.752Z,19.50
2019-03-27T14:01:45.492Z,19.50
2019-03-27T14:02:50.239Z,19.60
2019-03-27T14:03:54.978Z,19.50
2019-03-27T14:04:59.771Z,19.50
2019-03-27T14:06:04.520Z,19.50
2019-03-27T14:07:09.275Z,19.40
2019-03-27T14:08:14.119Z,19.50
2019-03-27T14:09:18.909Z,19.40